DRI Storm Peak Lab. Weather observations

Data are for 5 minute period ending at time listed.
 Day   Time    Ave.   Ave.  Ave.  Vector  Max.   Total    Baro.    Solar      Aerosol      Ave.  Ultrafine   Snow  
  of    of     Air    Rel.  Wind   Wind   Wind  Precip.   Pres.  Radiation   Aerosol      Ozone   Aerosol    Depth 
Year   Day     Temp.  Hum.  Speed  Dir.   Gust                               Ave.   Max.            Ave.           
2017   (MST)    F      %     mph   deg.    mph    in.      mb.     w/m2         #/cm3      ppbv    #/cm3      in.  
-------------------------------------------------------------------------------------------------------------------
 290   20:25   41.0    23    2.6   283     3.8   999.00    695.4    999.0    999000   999000   999.0    999000   999.0
 290   20:30   40.8    23    3.2   285     3.8   999.00    695.4    999.0    999000   999000   999.0    999000   999.0
 290   20:35   41.0    23    3.0   287     4.0   999.00    695.4    999.0    999000   999000   999.0    999000   999.0
 290   20:40   41.0    23    2.9   287     3.8   999.00    695.4    999.0    999000   999000   999.0    999000   999.0
 290   20:45   40.8    23    3.1   287     3.8   999.00    695.4    999.0    999000   999000   999.0    999000   999.0
 290   20:50   40.7    23    3.1   287     4.6   999.00    695.4    999.0    999000   999000   999.0    999000   999.0
 290   20:55   40.5    23    3.4   285     4.8   999.00    695.4    999.0    999000   999000   999.0    999000   999.0
 290   21:00   40.4    24    3.4   285     4.6   999.00    695.4    999.0    999000   999000   999.0    999000   999.0
 290   21:05   40.5    23    3.7   285     6.5   999.00    695.3    999.0    999000   999000   999.0    999000   999.0
 290   21:10   40.7    22    6.3   285    10.9   999.00    695.2    999.0    999000   999000   999.0    999000   999.0
 290   21:15   41.0    22    6.9   283    12.0   999.00    695.2    999.0    999000   999000   999.0    999000   999.0
 290   21:20   40.9    22    7.2   283    12.6   999.00    695.3    999.0    999000   999000   999.0    999000   999.0
 290   21:25   40.7    22    5.9   284    10.7   999.00    695.2    999.0    999000   999000   999.0    999000   999.0
 290   21:30   40.4    23    5.6   286     9.4   999.00    695.3    999.0    999000   999000   999.0    999000   999.0
 290   21:35   40.5    23    7.8   286    11.5   999.00    695.3    999.0    999000   999000   999.0    999000   999.0
 290   21:40   40.5    23   10.2   284    14.4   999.00    695.3    999.0    999000   999000   999.0    999000   999.0
 290   21:45   40.6    23   11.0   283    13.0   999.00    695.3    999.0    999000   999000   999.0    999000   999.0
 290   21:50   40.7    23   11.6   281    14.6   999.00    695.3    999.0    999000   999000   999.0    999000   999.0
 290   21:55   40.8    23   11.4   279    14.8   999.00    695.2    999.0    999000   999000   999.0    999000   999.0
 290   22:00   40.7    23   11.2   277    13.7   999.00    695.3    999.0    999000   999000   999.0    999000   999.0
 290   22:05   40.8    23   10.9   276    13.9   999.00    695.2    999.0    999000   999000   999.0    999000   999.0
 290   22:10   40.7    23   12.0   274    15.6   999.00    695.2    999.0    999000   999000   999.0    999000   999.0
 290   22:15   40.9    23   12.5   273    15.8   999.00    695.2    999.0    999000   999000   999.0    999000   999.0
 290   22:20   41.0    23   13.8   273    16.1   999.00    695.0    999.0    999000   999000   999.0    999000   999.0
 290   22:25   41.4    23   16.6   272    20.2   999.00    695.0    999.0    999000   999000   999.0    999000   999.0
 290   22:30   41.5    23   15.9   270    21.5   999.00    695.0    999.0    999000   999000   999.0    999000   999.0
 290   22:35   41.8    22   17.8   260    21.1   999.00    694.9    999.0    999000   999000   999.0    999000   999.0
 290   22:40   41.9    22   17.0   258    20.8   999.00    694.9    999.0    999000   999000   999.0    999000   999.0
 290   22:45   41.8    22   15.9   259    20.0   999.00    694.9    999.0    999000   999000   999.0    999000   999.0
 290   22:50   41.6    22   16.5   258    19.1   999.00    694.8    999.0    999000   999000   999.0    999000   999.0
 290   22:55   41.5    22   15.5   257    19.5   999.00    694.9    999.0    999000   999000   999.0    999000   999.0
 290   23:00   41.4    22   14.4   256    18.4   999.00    694.9    999.0    999000   999000   999.0    999000   999.0
 290   23:05   41.2    22   14.9   256    18.2   999.00    695.0    999.0    999000   999000   999.0    999000   999.0
 290   23:10   41.0    23   12.2   258    14.8   999.00    694.9    999.0    999000   999000   999.0    999000   999.0
 290   23:15   40.7    23   12.8   257    15.9   999.00    694.9    999.0    999000   999000   999.0    999000   999.0
 290   23:20   40.6    23   14.0   257    16.3   999.00    694.9    999.0    999000   999000   999.0    999000   999.0
 290   23:25   40.9    22   14.4   255    17.8   999.00    694.8    999.0    999000   999000   999.0    999000   999.0
 290   23:30   40.9    22   16.4   254    19.7   999.00    694.8    999.0    999000   999000   999.0    999000   999.0
 290   23:35   41.0    22   16.6   253    20.4   999.00    694.8    999.0    999000   999000   999.0    999000   999.0
 290   23:40   40.7    23   16.0   251    20.2   999.00    694.8    999.0    999000   999000   999.0    999000   999.0
 290   23:45   40.4    22   15.7   251    20.2   999.00    694.8    999.0    999000   999000   999.0    999000   999.0
 290   23:50   40.4    23   17.1   250    21.0   999.00    694.7    999.0    999000   999000   999.0    999000   999.0
 290   23:55   40.2    23   17.4   253    19.9   999.00    694.8    999.0    999000   999000   999.0    999000   999.0
 291    0:00   40.1    23   15.4   255    18.5   999.00    694.8    999.0    999000   999000   999.0    999000   999.0
 291    0:05   40.1    23   15.1   255    17.8   999.00    694.8    999.0    999000   999000   999.0    999000   999.0
 291    0:10   40.0    22   15.2   257    18.4   999.00    694.8    999.0    999000   999000   999.0    999000   999.0
 291    0:15   39.8    23   13.9   259    18.9   999.00    694.8    999.0    999000   999000   999.0    999000   999.0
 291    0:20   39.8    23   14.0   262    16.5   999.00    694.8    999.0    999000   999000   999.0    999000   999.0
 291    0:25   39.7    22   13.3   265    15.9   999.00    694.8    999.0    999000   999000   999.0    999000   999.0
 291    0:30   39.5    23   11.9   266    14.6   999.00    694.7    999.0    999000   999000   999.0    999000   999.0
 291    0:35   39.4    22   13.2   265    16.3   999.00    694.7    999.0    999000   999000   999.0    999000   999.0
 291    0:40   39.6    21   14.3   264    16.7   999.00    694.6    999.0    999000   999000   999.0    999000   999.0
 291    0:45   39.7    21   14.8   264    17.8   999.00    694.6    999.0    999000   999000   999.0    999000   999.0
 291    0:50   39.7    21   13.9   264    17.2   999.00    694.6    999.0    999000   999000   999.0    999000   999.0
 291    0:55   39.3    21   13.9   268    18.0   999.00    694.6    999.0    999000   999000   999.0    999000   999.0
 291    1:00   39.1    22   13.4   270    16.1   999.00    694.7    999.0    999000   999000   999.0    999000   999.0
 291    1:05   39.1    21   12.5   270    17.2   999.00    694.6    999.0    999000   999000   999.0    999000   999.0
 291    1:10   39.0    22   12.3   270    16.1   999.00    694.6    999.0    999000   999000   999.0    999000   999.0
 291    1:15   38.5    22   12.2   270    15.0   999.00    694.6    999.0    999000   999000   999.0    999000   999.0
 291    1:20   38.5    22   12.2   273    15.8   999.00    694.6    999.0    999000   999000   999.0    999000   999.0
 291    1:25   38.5    22   12.9   272    15.8   999.00    694.6    999.0    999000   999000   999.0    999000   999.0
 291    1:30   38.8    21   14.7   267    18.7   999.00    694.5    999.0    999000   999000   999.0    999000   999.0
 291    1:35   38.9    20   15.7   265    20.4   999.00    694.5    999.0    999000   999000   999.0    999000   999.0
 291    1:40   38.9    19   14.9   266    18.7   999.00    694.6    999.0    999000   999000   999.0    999000   999.0
 291    1:45   38.9    19   16.3   264    20.0   999.00    694.6    999.0    999000   999000   999.0    999000   999.0
 291    1:50   38.9    18   17.1   259    20.0   999.00    694.5    999.0    999000   999000   999.0    999000   999.0
 291    1:55   39.0    18   18.2   256    21.3   999.00    694.5    999.0    999000   999000   999.0    999000   999.0
 291    2:00   39.0    18   18.5   254    22.5   999.00    694.4    999.0    999000   999000   999.0    999000   999.0
 291    2:05   39.1    18   18.6   253    21.3   999.00    694.3    999.0    999000   999000   999.0    999000   999.0
 291    2:10   39.1    17   18.8   252    21.9   999.00    694.3    999.0    999000   999000   999.0    999000   999.0
 291    2:15   39.2    17   19.0   252    23.0   999.00    694.3    999.0    999000   999000   999.0    999000   999.0
 291    2:20   39.2    17   19.3   256    22.3   999.00    694.3    999.0    999000   999000   999.0    999000   999.0
 291    2:25   39.2    17   17.8   262    22.1   999.00    694.3    999.0    999000   999000   999.0    999000   999.0
 291    2:30   38.9    17   17.4   260    20.2   999.00    694.2    999.0    999000   999000   999.0    999000   999.0
 291    2:35   38.9    17   17.1   260    21.5   999.00    694.2    999.0    999000   999000   999.0    999000   999.0
 291    2:40   38.6    17   16.4   258    22.6   999.00    694.2    999.0    999000   999000   999.0    999000   999.0
 291    2:45   38.8    17   18.1   256    23.4   999.00    694.2    999.0    999000   999000   999.0    999000   999.0
 291    2:50   39.0    16   17.5   258    21.7   999.00    694.2    999.0    999000   999000   999.0    999000   999.0
 291    2:55   39.0    16   17.3   260    21.0   999.00    694.3    999.0    999000   999000   999.0    999000   999.0
 291    3:00   38.8    17   15.0   263    19.9   999.00    694.3    999.0    999000   999000   999.0    999000   999.0
 291    3:05   38.6    17   16.1   264    21.1   999.00    694.2    999.0    999000   999000   999.0    999000   999.0
 291    3:10   38.7    17   16.3   265    21.1   999.00    694.2    999.0    999000   999000   999.0    999000   999.0
 291    3:15   38.8    16   18.3   264    21.7   999.00    694.1    999.0    999000   999000   999.0    999000   999.0
 291    3:20   38.7    16   17.0   264    21.1   999.00    694.1    999.0    999000   999000   999.0    999000   999.0
 291    3:25   38.4    17   16.1   266    18.4   999.00    694.1    999.0    999000   999000   999.0    999000   999.0
 291    3:30   38.2    17   14.2   272    19.1   999.00    694.2    999.0    999000   999000   999.0    999000   999.0
 291    3:35   37.7    18   11.7   277    16.7   999.00    694.2    999.0    999000   999000   999.0    999000   999.0
 291    3:40   37.0    19   11.0   280    13.9   999.00    694.3    999.0    999000   999000   999.0    999000   999.0
 291    3:45   36.7    19   11.4   280    13.7   999.00    694.3    999.0    999000   999000   999.0    999000   999.0
 291    3:50   36.8    19   13.0   280    15.8   999.00    694.3    999.0    999000   999000   999.0    999000   999.0
 291    3:55   36.9    18   12.9   279    17.1   999.00    694.3    999.0    999000   999000   999.0    999000   999.0
 291    4:00   37.1    18   13.3   279    17.8   999.00    694.3    999.0    999000   999000   999.0    999000   999.0
 291    4:05   37.1    18   12.0   280    15.8   999.00    694.4    999.0    999000   999000   999.0    999000   999.0
 291    4:10   37.2    18   12.0   280    15.6   999.00    694.3    999.0    999000   999000   999.0    999000   999.0
 291    4:15   37.0    18   12.5   282    16.9   999.00    694.3    999.0    999000   999000   999.0    999000   999.0
 291    4:20   37.0    18   11.8   282    16.5   999.00    694.4    999.0    999000   999000   999.0    999000   999.0
 291    4:25   36.9    19   10.8   287    13.0   999.00    694.5    999.0    999000   999000   999.0    999000   999.0
 291    4:30   36.8    19   10.9   289    13.9   999.00    694.5    999.0    999000   999000   999.0    999000   999.0
 291    4:35   36.8    19   10.0   293    14.1   999.00    694.5    999.0    999000   999000   999.0    999000   999.0
 291    4:40   36.8    18   10.9   295    15.8   999.00    694.5    999.0    999000   999000   999.0    999000   999.0
 291    4:45   36.9    18   11.2   294    13.7   999.00    694.5    999.0    999000   999000   999.0    999000   999.0
 291    4:50   36.8    18   11.2   293    14.4   999.00    694.5    999.0    999000   999000   999.0    999000   999.0
 291    4:55   36.9    18   10.5   290    14.8   999.00    694.5    999.0    999000   999000   999.0    999000   999.0
 291    5:00   36.8    18    9.3   292    15.9   999.00    694.5    999.0    999000   999000   999.0    999000   999.0
 291    5:05   36.7    18   11.3   292    15.2   999.00    694.5    999.0    999000   999000   999.0    999000   999.0
 291    5:10   36.8    18    9.9   292    14.3   999.00    694.6    999.0    999000   999000   999.0    999000   999.0
 291    5:15   36.8    18   10.8   291    16.3   999.00    694.6    999.0    999000   999000   999.0    999000   999.0
 291    5:20   36.8    18   11.8   289    14.3   999.00    694.6    999.0    999000   999000   999.0    999000   999.0
 291    5:25   36.9    18   11.2   290    15.2   999.00    694.6    999.0    999000   999000   999.0    999000   999.0
 291    5:30   36.6    18    9.8   288    15.4   999.00    694.6    999.0    999000   999000   999.0    999000   999.0
 291    5:35   37.0    18   11.5   285    14.8   999.00    694.6    999.0    999000   999000   999.0    999000   999.0
 291    5:40   37.2    17   13.7   284    18.2   999.00    694.6    999.0    999000   999000   999.0    999000   999.0
 291    5:45   37.6    17   13.8   282    18.5   999.00    694.6    999.0    999000   999000   999.0    999000   999.0
 291    5:50   37.2    18   11.7   286    20.0   999.00    694.6    999.0    999000   999000   999.0    999000   999.0
 291    5:55   36.5    18   10.8   294    13.0   999.00    694.8    999.0    999000   999000   999.0    999000   999.0
 291    6:00   36.3    19   10.3   298    13.2   999.00    694.9    999.0    999000   999000   999.0    999000   999.0
 291    6:05   36.3    20    9.1   299    11.3   999.00    695.0    999.0    999000   999000   999.0    999000   999.0
 291    6:10   35.7    20    4.9   299     9.2   999.00    695.0    999.0    999000   999000   999.0    999000   999.0
 291    6:15   35.9    20    6.0   299     9.4   999.00    695.0    999.0    999000   999000   999.0    999000   999.0
 291    6:20   36.1    19    2.6   297     5.9   999.00    694.9    999.0    999000   999000   999.0    999000   999.0
 291    6:25   36.2    19    3.4   298     5.2   999.00    694.9    999.0    999000   999000   999.0    999000   999.0
 291    6:30   36.4    18    7.8   296    10.9   999.00    695.0    999.0    999000   999000   999.0    999000   999.0
 291    6:35   36.2    18    2.8   294     5.0   999.00    694.9    999.0    999000   999000   999.0    999000   999.0
 291    6:40   36.0    18    4.8   292     9.6   999.00    695.0    999.0    999000   999000   999.0    999000   999.0
 291    6:45   36.1    18    5.0   293    12.4   999.00    695.1    999.0    999000   999000   999.0    999000   999.0
 291    6:50   36.5    17    5.7   293    11.8   999.00    695.2    999.0    999000   999000   999.0    999000   999.0
 291    6:55   36.4    18    6.7   296    11.8   999.00    695.3    999.0    999000   999000   999.0    999000   999.0
 291    7:00   36.4    18    2.6   294     4.0   999.00    695.4    999.0    999000   999000   999.0    999000   999.0
 291    7:05   36.3    18    6.5   290    12.6   999.00    695.4    999.0    999000   999000   999.0    999000   999.0
 291    7:10   36.4    18    3.7   291     6.6   999.00    695.5    999.0    999000   999000   999.0    999000   999.0
 291    7:15   36.5    18    6.0   290    13.0   999.00    695.5    999.0    999000   999000   999.0    999000   999.0
 291    7:20   36.8    17   10.2   288    13.5   999.00    695.4    999.0    999000   999000   999.0    999000   999.0
 291    7:25   36.9    17   11.9   287    15.6   999.00    695.4    999.0    999000   999000   999.0    999000   999.0
 291    7:30   37.0    17    9.7   286    14.8   999.00    695.5    999.0    999000   999000   999.0    999000   999.0
 291    7:35   36.9    18   10.3   286    13.3   999.00    695.6    999.0    999000   999000   999.0    999000   999.0
 291    7:40   36.7    18   11.1   286    15.4   999.00    695.6    999.0    999000   999000   999.0    999000   999.0
 291    7:45   36.8    18    6.3   286    12.2   999.00    695.7    999.0    999000   999000   999.0    999000   999.0
 291    7:50   36.5    18    4.0   287     9.1   999.00    695.8    999.0    999000   999000   999.0    999000   999.0
 291    7:55   36.4    18    3.0   287     4.6   999.00    695.8    999.0    999000   999000   999.0    999000   999.0
 291    8:00   36.4    18    2.9   287     5.3   999.00    695.9    999.0    999000   999000   999.0    999000   999.0
 291    8:05   36.5    18    3.1   290     5.2   999.00    695.9    999.0    999000   999000   999.0    999000   999.0
 291    8:10   36.6    18    2.9   292     4.6   999.00    696.0    999.0    999000   999000   999.0    999000   999.0
 291    8:15   36.5    18    3.1   290     5.5   999.00    696.0    999.0    999000   999000   999.0    999000   999.0
 291    8:20   36.4    19    3.1   289     5.2   999.00    696.0    999.0    999000   999000   999.0    999000   999.0
 291    8:25   36.8    18    4.0   287     9.1   999.00    696.0    999.0    999000   999000   999.0    999000   999.0
 291    8:30   37.0    18    2.9   287     5.3   999.00    696.0    999.0    999000   999000   999.0    999000   999.0
 291    8:35   37.1    18    3.5   287     6.1   999.00    696.0    999.0    999000   999000   999.0    999000   999.0
 291    8:40   37.3    18    3.7   287     7.0   999.00    696.0    999.0    999000   999000   999.0    999000   999.0
 291    8:45   37.4    19    5.0   286    13.3   999.00    696.1    999.0    999000   999000   999.0    999000   999.0
 291    8:50   37.5    18    5.5   285    13.0   999.00    696.1    999.0    999000   999000   999.0    999000   999.0
 291    8:55   37.6    19    4.4   285    10.4   999.00    696.1    999.0    999000   999000   999.0    999000   999.0
 291    9:00   37.5    19    3.9   285    12.4   999.00    696.2    999.0    999000   999000   999.0    999000   999.0
 291    9:05   38.0    19    2.2   285     4.2   999.00    696.2    999.0    999000   999000   999.0    999000   999.0
 291    9:10   38.2    19    2.4   286     4.4   999.00    696.3    999.0    999000   999000   999.0    999000   999.0
 291    9:15   38.3    19    2.8   286     4.4   999.00    696.2    999.0    999000   999000   999.0    999000   999.0
 291    9:20   38.2    19    2.7   286     4.0   999.00    696.2    999.0    999000   999000   999.0    999000   999.0
 291    9:25   38.4    20    2.5   286     4.0   999.00    696.2    999.0    999000   999000   999.0    999000   999.0
 291    9:30   38.7    19    2.5   286     5.5   999.00    696.2    999.0    999000   999000   999.0    999000   999.0
 291    9:35   38.5    19    5.3   285    11.7   999.00    696.2    999.0    999000   999000   999.0    999000   999.0
 291    9:40   38.7    19    2.7   286     4.6   999.00    696.2    999.0    999000   999000   999.0    999000   999.0
 291    9:45   39.3    19    2.5   286     4.4   999.00    696.3    999.0    999000   999000   999.0    999000   999.0
 291    9:50   39.3    19    2.5   285     3.8   999.00    696.2    999.0    999000   999000   999.0    999000   999.0
 291    9:55   39.5    19    2.2   286     3.3   999.00    696.3    999.0    999000   999000   999.0    999000   999.0
 291   10:00   39.9    19    2.3   286     3.5   999.00    696.4    999.0    999000   999000   999.0    999000   999.0
 291   10:05   39.9    18    2.3   287     3.5   999.00    696.5    999.0    999000   999000   999.0    999000   999.0
 291   10:10   39.6    18    2.4   290     3.5   999.00    696.5    999.0    999000   999000   999.0    999000   999.0
 291   10:15   39.9    19    1.8   290     2.0   999.00    696.6    999.0    999000   999000   999.0    999000   999.0
 291   10:20   40.2    19    1.8   290     2.2   999.00    696.6    999.0    999000   999000   999.0    999000   999.0
 291   10:25   40.6    19    2.0   288     3.1   999.00    696.6    999.0    999000   999000   999.0    999000   999.0
 291   10:30   41.5    21    1.8   288     2.2   999.00    696.7    999.0    999000   999000   999.0    999000   999.0
 291   10:35   42.7    18    1.9   288     2.7   999.00    696.8    999.0    999000   999000   999.0    999000   999.0
 291   10:40   41.7    18    1.9   288     2.9   999.00    696.8    999.0    999000   999000   999.0    999000   999.0
 291   10:45   42.5    18    2.1   287     3.1   999.00    696.8    999.0    999000   999000   999.0    999000   999.0
 291   10:50   43.4    17    1.9   286     2.9   999.00    696.8    999.0    999000   999000   999.0    999000   999.0
 291   10:55   43.7    16    2.0   291     2.9   999.00    696.7    999.0    999000   999000   999.0    999000   999.0
 291   11:00   42.9    18    1.9   287     2.5   999.00    696.8    999.0    999000   999000   999.0    999000   999.0
 291   11:05   43.0    19    3.0   287     5.5   999.00    696.8    999.0    999000   999000   999.0    999000   999.0
 291   11:10   42.6    18    2.8   287     5.0   999.00    696.7    999.0    999000   999000   999.0    999000   999.0
 291   11:15   43.0    17    3.5   285     7.4   999.00    696.6    999.0    999000   999000   999.0    999000   999.0
 291   11:20   43.1    18    3.0   285     4.8   999.00    696.7    999.0    999000   999000   999.0    999000   999.0
 291   11:25   43.8    19    2.9   285     5.9   999.00    696.6    999.0    999000   999000   999.0    999000   999.0
 291   11:30   43.6    20    2.5   285     4.0   999.00    696.5    999.0    999000   999000   999.0    999000   999.0
 291   11:35   43.6    17    2.5   285     3.8   999.00    696.5    999.0    999000   999000   999.0    999000   999.0
 291   11:40   43.7    19    2.1   285     3.3   999.00    696.6    999.0    999000   999000   999.0    999000   999.0
 291   11:45   43.9    17    2.6   285     5.7   999.00    696.6    999.0    999000   999000   999.0    999000   999.0
 291   11:50   44.5    18    2.9   284     4.8   999.00    696.6    999.0    999000   999000   999.0    999000   999.0
 291   11:55   44.2    16    2.2   285     4.6   999.00    696.6    999.0    999000   999000   999.0    999000   999.0
 291   12:00   44.1    16    2.5   285     3.3   999.00    696.6    999.0    999000   999000   999.0    999000   999.0
 291   12:05   44.1    16    2.7   285     6.8   999.00    696.6    999.0    999000   999000   999.0    999000   999.0
 291   12:10   45.0    18    2.2   285     3.5   999.00    696.6    999.0    999000   999000   999.0    999000   999.0
 291   12:15   46.3    16    2.8   284     5.0   999.00    696.6    999.0    999000   999000   999.0    999000   999.0
 291   12:20   46.6    16    2.1   284     3.7   999.00    696.5    999.0    999000   999000   999.0    999000   999.0
 291   12:25   46.6    17    2.9   284     6.5   999.00    696.5    999.0    999000   999000   999.0    999000   999.0
 291   12:30   46.0    16    3.5   284     6.6   999.00    696.4    999.0    999000   999000   999.0    999000   999.0
 291   12:35   45.7    16    2.8   284     5.2   999.00    696.3    999.0    999000   999000   999.0    999000   999.0
 291   12:40   45.9    17    3.3   284     6.6   999.00    696.2    999.0    999000   999000   999.0    999000   999.0
 291   12:45   46.7    17    3.7   284     9.6   999.00    696.2    999.0    999000   999000   999.0    999000   999.0
 291   12:50   47.1    16    4.1   284     9.2   999.00    696.2    999.0    999000   999000   999.0    999000   999.0
 291   12:55   46.2    16    3.8   284     6.3   999.00    696.1    999.0    999000   999000   999.0    999000   999.0
 291   13:00   47.4    16    2.7   284     4.2   999.00    696.1    999.0    999000   999000   999.0    999000   999.0
 291   13:05   47.0    16    2.7   284     4.4   999.00    696.1    999.0    999000   999000   999.0    999000   999.0
 291   13:10   47.2    15    4.5   284    14.3   999.00    696.0    999.0    999000   999000   999.0    999000   999.0
 291   13:15   47.7    16    3.9   284     8.5   999.00    696.0    999.0    999000   999000   999.0    999000   999.0
 291   13:20   47.2    15    5.7   284    17.1   999.00    695.9    999.0    999000   999000   999.0    999000   999.0
 291   13:25   47.0    14   10.9   283    17.2   999.00    695.9    999.0    999000   999000   999.0    999000   999.0
 291   13:30   46.5    14    4.8   284    13.2   999.00    696.0    999.0    999000   999000   999.0    999000   999.0
 291   13:35   48.0    16    2.6   284     5.0   999.00    695.9    999.0    999000   999000   999.0    999000   999.0
 291   13:40   47.6    16    3.6   284     7.0   999.00    695.8    999.0    999000   999000   999.0    999000   999.0
 291   13:45   47.0    16    3.7   284    10.6   999.00    695.7    999.0    999000   999000   999.0    999000   999.0
 291   13:50   47.4    18    3.6   284     6.8   999.00    695.7    999.0    999000   999000   999.0    999000   999.0
 291   13:55   47.0    17    3.2   284     6.8   999.00    695.7    999.0    999000   999000   999.0    999000   999.0
 291   14:00   47.3    18    3.7   284     7.0   999.00    695.7    999.0    999000   999000   999.0    999000   999.0
 291   14:05   47.4    17    5.2   283    12.8   999.00    695.6    999.0    999000   999000   999.0    999000   999.0
 291   14:10   47.5    17    6.1   283    11.8   999.00    695.6    999.0    999000   999000   999.0    999000   999.0
 291   14:15   48.7    18    4.7   283    12.6   999.00    695.6    999.0    999000   999000   999.0    999000   999.0
 291   14:20   49.2    18    3.1   284     6.3   999.00    695.6    999.0    999000   999000   999.0    999000   999.0
 291   14:25   48.1    19    5.4   284     9.1   999.00    695.5    999.0    999000   999000   999.0    999000   999.0
 291   14:30   47.8    18    5.4   283    13.2   999.00    695.4    999.0    999000   999000   999.0    999000   999.0
 291   14:35   47.9    18    5.8   284    12.2   999.00    695.5    999.0    999000   999000   999.0    999000   999.0
 291   14:40   48.2    18    3.8   284    12.4   999.00    695.5    999.0    999000   999000   999.0    999000   999.0
 291   14:45   48.3    17    2.2   289     3.7   999.00    695.5    999.0    999000   999000   999.0    999000   999.0
 291   14:50   48.1    18    2.3   287     4.4   999.00    695.6    999.0    999000   999000   999.0    999000   999.0
 291   14:55   48.4    18    2.6   288     4.2   999.00    695.6    999.0    999000   999000   999.0    999000   999.0
 291   15:00   49.0    19    2.2   288     4.8   999.00    695.5    999.0    999000   999000   999.0    999000   999.0
 291   15:05   49.1    19    2.5   286     4.2   999.00    695.6    999.0    999000   999000   999.0    999000   999.0
 291   15:10   49.4    18    2.4   287     4.8   999.00    695.5    999.0    999000   999000   999.0    999000   999.0
 291   15:15   48.8    18    2.2   288     3.7   999.00    695.6    999.0    999000   999000   999.0    999000   999.0
 291   15:20   49.0    17    1.9   288     2.9   999.00    695.6    999.0    999000   999000   999.0    999000   999.0
 291   15:25   48.5    17    2.8   288     4.8   999.00    695.6    999.0    999000   999000   999.0    999000   999.0
 291   15:30   48.0    18    2.3   288     3.5   999.00    695.6    999.0    999000   999000   999.0    999000   999.0
 291   15:35   48.0    18    2.9   289     5.3   999.00    695.5    999.0    999000   999000   999.0    999000   999.0
 291   15:40   48.3    18    2.7   290     3.5   999.00    695.5    999.0    999000   999000   999.0    999000   999.0
 291   15:45   48.5    17    2.6   288     5.3   999.00    695.6    999.0    999000   999000   999.0    999000   999.0
 291   15:50   48.1    17    2.0   287     2.9   999.00    695.6    999.0    999000   999000   999.0    999000   999.0
 291   15:55   48.3    18    2.5   288     4.6   999.00    695.5    999.0    999000   999000   999.0    999000   999.0
 291   16:00   47.8    18    3.0   288     5.2   999.00    695.5    999.0    999000   999000   999.0    999000   999.0
 291   16:05   47.5    18    3.0   290     5.5   999.00    695.6    999.0    999000   999000   999.0    999000   999.0
 291   16:10   47.2    18    3.0   291     4.8   999.00    695.6    999.0    999000   999000   999.0    999000   999.0
 291   16:15   47.7    18    2.3   290     3.7   999.00    695.5    999.0    999000   999000   999.0    999000   999.0
 291   16:20   47.2    18    2.9   293     4.8   999.00    695.5    999.0    999000   999000   999.0    999000   999.0
 291   16:25   46.9    18    3.3   292     6.1   999.00    695.5    999.0    999000   999000   999.0    999000   999.0
 291   16:30   46.9    19    2.4   291     3.1   999.00    695.6    999.0    999000   999000   999.0    999000   999.0
 291   16:35   47.1    19    2.6   290     3.7   999.00    695.6    999.0    999000   999000   999.0    999000   999.0
 291   16:40   47.1    19    2.4   290     3.3   999.00    695.6    999.0    999000   999000   999.0    999000   999.0
 291   16:45   46.7    19    2.7   291     3.7   999.00    695.6    999.0    999000   999000   999.0    999000   999.0
 291   16:50   46.4    19    2.6   291     3.5   999.00    695.6    999.0    999000   999000   999.0    999000   999.0
 291   16:55   46.1    18    2.8   292     3.5   999.00    695.5    999.0    999000   999000   999.0    999000   999.0
 291   17:00   46.2    18    2.7   292     3.3   999.00    695.4    999.0    999000   999000   999.0    999000   999.0
 291   17:05   46.0    18    3.0   292     3.8   999.00    695.5    999.0    999000   999000   999.0    999000   999.0
 291   17:10   45.8    18    2.8   293     3.7   999.00    695.4    999.0    999000   999000   999.0    999000   999.0
 291   17:15   45.3    19    2.5   293     3.5   999.00    695.4    999.0    999000   999000   999.0    999000   999.0
 291   17:20   44.7    20    2.6   290     3.3   999.00    695.4    999.0    999000   999000   999.0    999000   999.0
 291   17:25   44.3    20    3.0   289     4.6   999.00    695.3    999.0    999000   999000   999.0    999000   999.0
 291   17:30   44.2    19    3.1   288     4.0   999.00    695.4    999.0    999000   999000   999.0    999000   999.0
 291   17:35   44.1    19    2.5   289     3.7   999.00    695.4    999.0    999000   999000   999.0    999000   999.0
 291   17:40   44.0    19    2.3   288     3.3   999.00    695.4    999.0    999000   999000   999.0    999000   999.0
 291   17:45   44.2    19    2.8   288     3.8   999.00    695.5    999.0    999000   999000   999.0    999000   999.0
 291   17:50   44.5    19    3.3   288     4.6   999.00    695.5    999.0    999000   999000   999.0    999000   999.0
 291   17:55   44.4    19    3.2   288     4.2   999.00    695.5    999.0    999000   999000   999.0    999000   999.0
 291   18:00   44.4    19    3.1   288     3.8   999.00    695.5    999.0    999000   999000   999.0    999000   999.0
 291   18:05   44.3    19    3.1   288     4.0   999.00    695.5    999.0    999000   999000   999.0    999000   999.0
 291   18:10   44.0    19    3.2   288     4.0   999.00    695.4    999.0    999000   999000   999.0    999000   999.0
 291   18:15   43.5    20    3.1   288     4.0   999.00    695.4    999.0    999000   999000   999.0    999000   999.0
 291   18:20   43.6    20    3.4   288     4.4   999.00    695.4    999.0    999000   999000   999.0    999000   999.0
 291   18:25   43.7    20    3.3   288     4.2   999.00    695.4    999.0    999000   999000   999.0    999000   999.0
 291   18:30   43.2    20    3.1   288     4.2   999.00    695.5    999.0    999000   999000   999.0    999000   999.0
 291   18:35   43.0    21    3.0   288     4.0   999.00    695.5    999.0    999000   999000   999.0    999000   999.0
 291   18:40   43.2    20    3.2   288     3.8   999.00    695.5    999.0    999000   999000   999.0    999000   999.0
 291   18:45   43.4    20    3.4   287     5.0   999.00    695.5    999.0    999000   999000   999.0    999000   999.0
 291   18:50   43.5    20    3.5   287     4.8   999.00    695.5    999.0    999000   999000   999.0    999000   999.0
 291   18:55   43.6    20    3.1   287     5.0   999.00    695.5    999.0    999000   999000   999.0    999000   999.0
 291   19:00   43.5    20    3.2   287     3.8   999.00    695.5    999.0    999000   999000   999.0    999000   999.0
 291   19:05   43.5    20    3.7   287     4.6   999.00    695.4    999.0    999000   999000   999.0    999000   999.0
 291   19:10   43.7    20    2.9   287     4.0   999.00    695.4    999.0    999000   999000   999.0    999000   999.0
 291   19:15   43.8    20    2.8   287     3.7   999.00    695.4    999.0    999000   999000   999.0    999000   999.0
 291   19:20   43.8    20    2.9   287     3.8   999.00    695.3    999.0    999000   999000   999.0    999000   999.0
 291   19:25   44.0    20    3.4   287     4.0   999.00    695.4    999.0    999000   999000   999.0    999000   999.0
 291   19:30   43.9    20    3.9   287     4.8   999.00    695.3    999.0    999000   999000   999.0    999000   999.0
 291   19:35   43.8    20    4.0   287     5.2   999.00    695.3    999.0    999000   999000   999.0    999000   999.0
 291   19:40   43.8    20    3.3   287     4.2   999.00    695.3    999.0    999000   999000   999.0    999000   999.0
 291   19:45   43.6    20    3.1   287     3.7   999.00    695.3    999.0    999000   999000   999.0    999000   999.0
 291   19:50   43.6    20    2.9   287     3.7   999.00    695.2    999.0    999000   999000   999.0    999000   999.0
 291   19:55   43.5    20    2.7   287     3.1   999.00    695.2    999.0    999000   999000   999.0    999000   999.0
 291   20:00   43.5    20    3.3   287     4.0   999.00    695.2    999.0    999000   999000   999.0    999000   999.0
 291   20:05   43.6    20    2.9   287     3.8   999.00    695.2    999.0    999000   999000   999.0    999000   999.0
 291   20:10   43.5    20    2.8   287     3.3   999.00    695.2    999.0    999000   999000   999.0    999000   999.0
 291   20:15   43.6    20    2.8   287     3.3   999.00    695.2    999.0    999000   999000   999.0    999000   999.0
 291   20:20   43.6    20    2.7   287     3.1   999.00    695.2    999.0    999000   999000   999.0    999000   999.0

Return to DRI Storm Peak Lab. graphs page.


Western Regional Climate Center,wrcc@dri.edu